createdAt,value
2023-05-06T00:00:50.471Z,217680.00
2023-05-06T00:06:53.795Z,217619.00
2023-05-06T00:12:56.565Z,217590.00
2023-05-06T00:18:58.881Z,217582.00
2023-05-06T00:25:01.505Z,217524.00
2023-05-06T00:31:03.798Z,217504.00
2023-05-06T00:37:06.203Z,217504.00
2023-05-06T00:43:08.551Z,217488.00
2023-05-06T00:49:13.411Z,217453.00
2023-05-06T00:55:15.939Z,217433.00
2023-05-06T01:01:18.246Z,217384.00
2023-05-06T01:07:41.238Z,217313.00
2023-05-06T01:13:57.598Z,217271.00
2023-05-06T01:20:02.282Z,217219.00
2023-05-06T01:26:04.670Z,217151.00
2023-05-06T01:32:17.294Z,217071.00
2023-05-06T01:38:37.651Z,217030.00
2023-05-06T01:44:40.627Z,216978.00
2023-05-06T01:50:45.009Z,216942.00
2023-05-06T01:56:47.450Z,216916.00
2023-05-06T02:02:50.804Z,216914.00
2023-05-06T02:08:53.688Z,216854.00
2023-05-06T02:14:59.172Z,216810.00
2023-05-06T02:21:02.258Z,216747.00
2023-05-06T02:27:04.708Z,216719.00
2023-05-06T02:33:07.173Z,216761.00
2023-05-06T02:39:09.398Z,216725.00
2023-05-06T02:45:12.151Z,216661.00
2023-05-06T02:51:14.609Z,216613.00
2023-05-06T02:57:17.160Z,216543.00
2023-05-06T03:03:19.547Z,216477.00
2023-05-06T03:09:22.052Z,216464.00
2023-05-06T03:15:24.958Z,216422.00
2023-05-06T03:21:27.275Z,216386.00
2023-05-06T03:27:29.774Z,216386.00
2023-05-06T03:33:37.727Z,216450.00
2023-05-06T03:39:42.315Z,216521.00
2023-05-06T03:45:46.249Z,216620.00
2023-05-06T03:51:49.169Z,216725.00
2023-05-06T03:57:55.714Z,216874.00
2023-05-06T04:03:58.147Z,217022.00
2023-05-06T04:10:01.936Z,217197.00
2023-05-06T04:16:05.886Z,217376.00
2023-05-06T04:22:17.952Z,217574.00
2023-05-06T04:28:20.437Z,217724.00
2023-05-06T04:34:28.140Z,217903.00
2023-05-06T04:40:36.854Z,218102.00
2023-05-06T04:46:39.642Z,218310.00
2023-05-06T04:52:42.159Z,218439.00
2023-05-06T04:58:46.144Z,218646.00
2023-05-06T05:04:49.009Z,218860.00
2023-05-06T05:10:51.284Z,219018.00
2023-05-06T05:16:56.884Z,219283.00
2023-05-06T05:22:59.342Z,219305.00
2023-05-06T05:29:02.539Z,219594.00
2023-05-06T05:35:06.308Z,219782.00
2023-05-06T05:41:09.092Z,219970.00
2023-05-06T05:47:12.261Z,220288.00
2023-05-06T05:53:15.671Z,223569.00
2023-05-06T05:59:18.245Z,224548.00
2023-05-06T06:05:23.452Z,225438.00
2023-05-06T06:11:28.873Z,225360.00
2023-05-06T06:17:31.438Z,226041.00
2023-05-06T06:23:34.491Z,225899.00
2023-05-06T06:29:36.945Z,226194.00
2023-05-06T06:35:39.361Z,226598.00
2023-05-06T06:41:42.112Z,226895.00
2023-05-06T06:47:44.400Z,226645.00
2023-05-06T06:53:48.818Z,227346.00
2023-05-06T06:59:53.062Z,226803.00
2023-05-06T07:05:55.228Z,226964.00
2023-05-06T07:11:58.891Z,226996.00
2023-05-06T07:18:01.670Z,226833.00
2023-05-06T07:24:04.302Z,227055.00
2023-05-06T07:30:07.295Z,227218.00
2023-05-06T07:36:09.576Z,227263.00
2023-05-06T07:42:13.535Z,227408.00
2023-05-06T07:48:16.992Z,225937.00
2023-05-06T07:54:21.034Z,226622.00
2023-05-06T08:00:26.566Z,226841.00
2023-05-06T08:06:28.908Z,226817.00
2023-05-06T08:12:31.650Z,226308.00
2023-05-06T08:18:34.243Z,226942.00
2023-05-06T08:24:36.502Z,227263.00
2023-05-06T08:30:38.861Z,226887.00
2023-05-06T08:36:41.383Z,227017.00
2023-05-06T08:42:46.220Z,227416.00
2023-05-06T08:48:48.583Z,226148.00
2023-05-06T08:54:55.125Z,226956.00
2023-05-06T09:00:58.140Z,226308.00
2023-05-06T09:07:00.701Z,226675.00
2023-05-06T09:13:03.023Z,226271.00
2023-05-06T09:19:06.237Z,226667.00
2023-05-06T09:25:09.404Z,226550.00
2023-05-06T09:31:15.504Z,226354.00
2023-05-06T09:37:18.114Z,226498.00
2023-05-06T09:43:21.467Z,225649.00
2023-05-06T09:49:24.562Z,225518.00
2023-05-06T09:55:27.686Z,225384.00
2023-05-06T10:01:36.947Z,224646.00
2023-05-06T10:07:41.920Z,224239.00
2023-05-06T10:13:46.013Z,225299.00
2023-05-06T10:19:52.744Z,225051.00
2023-05-06T10:25:57.792Z,225113.00
2023-05-06T10:32:02.306Z,224842.00
2023-05-06T10:38:07.421Z,225550.00
2023-05-06T10:44:10.495Z,225913.00
2023-05-06T10:50:24.274Z,225180.00
2023-05-06T10:56:27.173Z,225255.00
2023-05-06T11:02:31.524Z,225006.00
2023-05-06T11:08:34.688Z,224519.00
2023-05-06T11:14:38.984Z,225129.00
2023-05-06T11:20:41.533Z,224503.00
2023-05-06T11:26:44.134Z,224363.00
2023-05-06T11:32:47.410Z,224301.00
2023-05-06T11:38:54.949Z,224681.00
2023-05-06T11:45:02.173Z,224038.00
2023-05-06T11:51:04.560Z,224503.00
2023-05-06T11:57:09.788Z,224376.00
2023-05-06T12:03:15.342Z,225145.00
2023-05-06T12:09:18.189Z,226003.00
2023-05-06T12:15:20.717Z,226255.00
2023-05-06T12:21:27.418Z,223822.00
2023-05-06T12:27:36.750Z,225829.00
2023-05-06T12:33:46.941Z,226140.00
2023-05-06T12:39:49.217Z,226378.00
2023-05-06T12:46:04.818Z,226477.00
2023-05-06T12:52:08.523Z,226651.00
2023-05-06T12:58:17.851Z,226424.00
2023-05-06T13:04:21.624Z,226043.00
2023-05-06T13:10:24.067Z,224871.00
2023-05-06T13:16:26.975Z,223948.00
2023-05-06T13:22:29.713Z,223353.00
2023-05-06T13:28:34.089Z,223172.00
2023-05-06T13:34:36.633Z,222529.00
2023-05-06T13:40:38.850Z,222537.00
2023-05-06T13:46:41.748Z,222402.00
2023-05-06T13:52:45.008Z,222256.00
2023-05-06T13:58:47.388Z,222197.00
2023-05-06T14:04:50.105Z,222066.00
2023-05-06T14:10:52.404Z,222045.00
2023-05-06T14:16:55.972Z,222058.00
2023-05-06T14:22:58.647Z,222058.00
2023-05-06T14:29:01.437Z,221955.00
2023-05-06T14:35:04.382Z,221852.00
2023-05-06T14:41:06.691Z,221828.00
2023-05-06T14:47:09.010Z,221758.00
2023-05-06T14:53:11.768Z,221690.00
2023-05-06T14:59:14.536Z,221624.00
2023-05-06T15:05:16.864Z,221565.00
2023-05-06T15:11:19.141Z,221646.00
2023-05-06T15:17:21.865Z,221565.00
2023-05-06T15:23:25.112Z,221441.00
2023-05-06T15:29:27.592Z,221413.00
2023-05-06T15:35:31.420Z,221296.00
2023-05-06T15:41:36.192Z,221199.00
2023-05-06T15:47:38.506Z,221148.00
2023-05-06T15:53:41.123Z,221128.00
2023-05-06T15:59:43.536Z,221066.00
2023-05-06T16:05:45.814Z,220982.00
2023-05-06T16:11:48.242Z,220916.00
2023-05-06T16:17:50.588Z,220833.00
2023-05-06T16:23:53.345Z,220718.00
2023-05-06T16:29:55.944Z,220609.00
2023-05-06T16:35:58.790Z,220509.00
2023-05-06T16:42:01.400Z,220435.00
2023-05-06T16:48:03.979Z,220340.00
2023-05-06T16:54:06.520Z,220253.00
2023-05-06T17:00:12.444Z,220196.00
2023-05-06T17:06:15.147Z,220101.00
2023-05-06T17:12:24.284Z,219986.00
2023-05-06T17:18:26.698Z,219889.00
2023-05-06T17:24:29.053Z,219782.00
2023-05-06T17:30:31.589Z,219703.00
2023-05-06T17:36:33.861Z,219630.00
2023-05-06T17:42:36.286Z,219521.00
2023-05-06T17:48:38.660Z,219422.00
2023-05-06T17:54:40.907Z,219327.00
2023-05-06T18:00:43.458Z,219247.00
2023-05-06T18:06:46.899Z,219261.00
2023-05-06T18:12:49.397Z,219269.00
2023-05-06T18:18:51.430Z,219263.00
2023-05-06T18:24:55.646Z,219269.00
2023-05-06T18:30:57.945Z,219247.00
2023-05-06T18:37:00.220Z,219220.00
2023-05-06T18:43:02.428Z,219163.00
2023-05-06T18:49:04.653Z,219070.00
2023-05-06T18:55:08.022Z,218996.00
2023-05-06T19:01:11.455Z,218876.00
2023-05-06T19:07:16.149Z,218810.00
2023-05-06T19:13:18.999Z,218759.00
2023-05-06T19:19:21.212Z,218773.00
2023-05-06T19:25:23.801Z,218759.00
2023-05-06T19:31:26.706Z,218660.00
2023-05-06T19:37:30.782Z,218595.00
2023-05-06T19:43:33.512Z,218553.00
2023-05-06T19:49:36.216Z,218466.00
2023-05-06T19:55:38.556Z,218417.00
2023-05-06T20:01:41.091Z,218345.00
2023-05-06T20:07:43.869Z,218264.00
2023-05-06T20:13:46.416Z,218206.00
2023-05-06T20:19:49.209Z,218116.00
2023-05-06T20:25:51.700Z,218029.00
2023-05-06T20:31:53.927Z,217937.00
2023-05-06T20:37:56.328Z,217825.00
2023-05-06T20:43:58.715Z,217765.00
2023-05-06T20:50:01.118Z,217680.00
2023-05-06T20:56:03.359Z,217639.00
2023-05-06T21:02:06.225Z,217625.00
2023-05-06T21:08:09.409Z,217653.00
2023-05-06T21:14:12.421Z,217708.00
2023-05-06T21:20:15.031Z,217781.00
2023-05-06T21:26:17.479Z,217867.00
2023-05-06T21:32:19.904Z,217924.00
2023-05-06T21:38:22.464Z,217979.00
2023-05-06T21:44:24.888Z,217979.00
2023-05-06T21:50:27.332Z,217987.00
2023-05-06T21:56:29.799Z,217951.00
2023-05-06T22:02:32.224Z,217903.00
2023-05-06T22:08:34.632Z,217825.00
2023-05-06T22:14:41.091Z,217803.00
2023-05-06T22:20:44.629Z,217803.00
2023-05-06T22:26:47.214Z,217803.00
2023-05-06T22:32:49.685Z,217787.00
2023-05-06T22:38:52.014Z,217765.00
2023-05-06T22:44:54.306Z,217680.00
2023-05-06T22:50:56.926Z,217596.00
2023-05-06T22:56:59.354Z,217496.00
2023-05-06T23:03:01.720Z,217384.00
2023-05-06T23:09:06.120Z,217299.00
2023-05-06T23:15:08.862Z,217199.00
2023-05-06T23:21:12.930Z,217079.00
2023-05-06T23:27:15.497Z,216986.00
2023-05-06T23:33:17.940Z,216874.00
2023-05-06T23:39:20.493Z,216788.00
2023-05-06T23:45:22.821Z,216711.00
2023-05-06T23:51:25.354Z,216647.00
2023-05-06T23:57:27.726Z,216577.00
